VTSR

Details ICAO VTSR
Name Ranong
Region Thailand
Timezone Asia/Bangkok (UTC+7.0)
Plans Departing 2
Arriving 9
Stats Elevation 57 ft / 17 m (AMSL)
Location 9.777622° 98.585483°
Runways 1
Magnetic Variation 0.459° W
Sunrise 2017-12-12 23:34:22 UTC / 2017-12-13 06:34:22 Local
Sunset 2017-12-13 11:07:57 UTC / 2017-12-13 18:07:57 Local
Advertisement - Login to hide

Runways

ID Width Length Bearing (true) Bearing (mag) Surface Threshold Offset Overrun Length
02 148 ft / 45 m 6,596 ft / 2,010 m 23.62° 24.08° Concrete 0 ft / 0 m 197 ft / 60 m
20 148 ft / 45 m 6,596 ft / 2,010 m 203.62° 204.08° Concrete 0 ft / 0 m 197 ft / 60 m

Approach Navaids

Runway Type Ident Frequency Range Bearing (true) Bearing (mag) Slope Elevation
02 Localiser IRAN 110.50 MHz 18 nm / 33 km 23.62° 24.08° - 57 ft / 17 m (AMSL)
02 Glidescope IRAN 110.50 MHz 10 nm / 19 km 23.62° 24.08° 3.00° 36 ft / 11 m (AMSL)
02 DME IRAN 111.10 MHz 18 nm / 33 km - - - 57 ft / 17 m (AMSL)

Map

Weather


0- 5 10 15 20 25 30 35+ Temperature / ° C

Clouds and Precipitation
Forecast for 2017-12-13 00:00 UTC. Updated an hour ago

Ground ~20,000 ft ~40,000 ft Winds

METAR

Not found

TAF

TAF VTSR 121700Z 1218/1318 00000KT 9999 FEW025 BECMG 1301/1303 06005KT BECMG 1306/1308 30005KT BECMG 1312/1314 00000KT 9000

Frequencies

Tower 122.25 MHz TWR
Approach 125.10 MHz APP
Warning: Do not use this data for real-world aviation or navigation. No guarantee of current accuracy is given.